sensor_id;sensor_type;location;lat;lon;timestamp;pressure;altitude;pressure_sealevel;temperature;humidity
64967;BME280;51710;38.732;-121.358;2023-09-19T00:00:34;100645.06;;;29.78;44.48
64967;BME280;51710;38.732;-121.358;2023-09-19T00:03:01;100639.03;;;29.81;43.58
64967;BME280;51710;38.732;-121.358;2023-09-19T00:05:30;100645.06;;;29.78;43.43
64967;BME280;51710;38.732;-121.358;2023-09-19T00:08:01;100639.56;;;29.78;43.62
64967;BME280;51710;38.732;-121.358;2023-09-19T00:10:31;100643.69;;;29.80;43.88
64967;BME280;51710;38.732;-121.358;2023-09-19T00:13:02;100644.19;;;29.88;43.71
64967;BME280;51710;38.732;-121.358;2023-09-19T00:15:45;100648.56;;;29.94;43.70
64967;BME280;51710;38.732;-121.358;2023-09-19T00:18:15;100638.38;;;29.94;43.27
64967;BME280;51710;38.732;-121.358;2023-09-19T00:20:43;100636.75;;;29.93;43.55
64967;BME280;51710;38.732;-121.358;2023-09-19T00:23:13;100636.75;;;29.93;43.22
64967;BME280;51710;38.732;-121.358;2023-09-19T00:25:40;100638.41;;;29.89;43.60
64967;BME280;51710;38.732;-121.358;2023-09-19T00:28:07;100643.94;;;29.84;43.11
64967;BME280;51710;38.732;-121.358;2023-09-19T00:30:34;100650.56;;;29.78;43.16
64967;BME280;51710;38.732;-121.358;2023-09-19T00:33:01;100647.31;;;29.76;43.24
64967;BME280;51710;38.732;-121.358;2023-09-19T00:35:31;100645.16;;;29.63;42.64
64967;BME280;51710;38.732;-121.358;2023-09-19T00:37:58;100648.22;;;29.56;43.11
64967;BME280;51710;38.732;-121.358;2023-09-19T00:40:25;100644.69;;;29.51;42.93
64967;BME280;51710;38.732;-121.358;2023-09-19T00:42:52;100642.50;;;29.48;43.00
64967;BME280;51710;38.732;-121.358;2023-09-19T00:45:22;100648.28;;;29.46;43.08
64967;BME280;51710;38.732;-121.358;2023-09-19T00:47:50;100640.34;;;29.40;42.37
64967;BME280;51710;38.732;-121.358;2023-09-19T00:50:18;100643.16;;;29.30;42.43
64967;BME280;51710;38.732;-121.358;2023-09-19T00:52:47;100645.97;;;29.15;41.93
64967;BME280;51710;38.732;-121.358;2023-09-19T00:55:16;100648.75;;;29.00;42.34
64967;BME280;51710;38.732;-121.358;2023-09-19T00:57:45;100650.41;;;28.96;42.37
64967;BME280;51710;38.732;-121.358;2023-09-19T01:00:12;100652.38;;;28.85;42.22
64967;BME280;51710;38.732;-121.358;2023-09-19T01:02:42;100662.25;;;28.81;41.93
64967;BME280;51710;38.732;-121.358;2023-09-19T01:05:10;100659.78;;;28.79;42.32
64967;BME280;51710;38.732;-121.358;2023-09-19T01:07:36;100658.41;;;28.77;42.19
64967;BME280;51710;38.732;-121.358;2023-09-19T01:10:08;100666.41;;;28.63;42.16
64967;BME280;51710;38.732;-121.358;2023-09-19T01:18:47;100673.28;;;28.26;42.52
64967;BME280;51710;38.732;-121.358;2023-09-19T01:21:25;100671.34;;;28.26;42.91
64967;BME280;51710;38.732;-121.358;2023-09-19T01:27:25;100665.03;;;28.11;42.72
64967;BME280;51710;38.732;-121.358;2023-09-19T01:30:10;100677.38;;;27.98;42.56
64967;BME280;51710;38.732;-121.358;2023-09-19T01:32:40;100675.13;;;27.85;42.94
64967;BME280;51710;38.732;-121.358;2023-09-19T01:35:07;100683.91;;;27.77;43.33
64967;BME280;51710;38.732;-121.358;2023-09-19T01:37:38;100683.34;;;27.70;43.24
64967;BME280;51710;38.732;-121.358;2023-09-19T01:40:10;100694.50;;;27.58;42.91
64967;BME280;51710;38.732;-121.358;2023-09-19T01:45:59;100701.75;;;27.23;42.84
64967;BME280;51710;38.732;-121.358;2023-09-19T01:51:10;100705.97;;;26.94;43.05
64967;BME280;51710;38.732;-121.358;2023-09-19T01:54:01;100699.84;;;26.77;43.23
64967;BME280;51710;38.732;-121.358;2023-09-19T01:56:56;100702.50;;;26.66;43.64
64967;BME280;51710;38.732;-121.358;2023-09-19T01:59:27;100701.88;;;26.54;43.74
64967;BME280;51710;38.732;-121.358;2023-09-19T02:01:58;100706.69;;;26.42;43.71
64967;BME280;51710;38.732;-121.358;2023-09-19T02:04:25;100710.41;;;26.31;43.87
64967;BME280;51710;38.732;-121.358;2023-09-19T02:06:53;100705.44;;;26.23;43.96
64967;BME280;51710;38.732;-121.358;2023-09-19T02:09:19;100704.22;;;26.09;44.16
64967;BME280;51710;38.732;-121.358;2023-09-19T02:11:45;100711.72;;;25.97;44.19
64967;BME280;51710;38.732;-121.358;2023-09-19T02:14:12;100704.72;;;25.80;44.48
64967;BME280;51710;38.732;-121.358;2023-09-19T02:16:39;100711.19;;;25.74;44.75
64967;BME280;51710;38.732;-121.358;2023-09-19T02:19:06;100702.66;;;25.65;44.47
64967;BME280;51710;38.732;-121.358;2023-09-19T02:21:33;100707.47;;;25.58;44.82
64967;BME280;51710;38.732;-121.358;2023-09-19T02:23:59;100711.81;;;25.54;44.96
64967;BME280;51710;38.732;-121.358;2023-09-19T02:26:25;100708.47;;;25.47;44.91
64967;BME280;51710;38.732;-121.358;2023-09-19T02:28:53;100712.44;;;25.39;45.03
64967;BME280;51710;38.732;-121.358;2023-09-19T02:31:19;100714.19;;;25.29;44.69
64967;BME280;51710;38.732;-121.358;2023-09-19T02:33:45;100718.69;;;25.18;44.74
64967;BME280;51710;38.732;-121.358;2023-09-19T02:36:12;100712.59;;;25.11;44.81
64967;BME280;51710;38.732;-121.358;2023-09-19T02:38:39;100716.09;;;25.07;44.85
64967;BME280;51710;38.732;-121.358;2023-09-19T02:41:05;100708.66;;;25.02;44.48
64967;BME280;51710;38.732;-121.358;2023-09-19T02:43:31;100709.69;;;24.96;44.36
64967;BME280;51710;38.732;-121.358;2023-09-19T02:45:57;100711.25;;;24.92;44.39
64967;BME280;51710;38.732;-121.358;2023-09-19T02:48:24;100714.16;;;24.86;44.31
64967;BME280;51710;38.732;-121.358;2023-09-19T02:50:51;100726.63;;;24.82;44.14
64967;BME280;51710;38.732;-121.358;2023-09-19T02:53:18;100723.56;;;24.78;44.24
64967;BME280;51710;38.732;-121.358;2023-09-19T02:55:44;100725.41;;;24.73;43.87
64967;BME280;51710;38.732;-121.358;2023-09-19T02:58:12;100734.28;;;24.68;44.44
64967;BME280;51710;38.732;-121.358;2023-09-19T03:00:41;100740.81;;;24.67;44.17
64967;BME280;51710;38.732;-121.358;2023-09-19T03:03:13;100745.44;;;24.67;44.09
64967;BME280;51710;38.732;-121.358;2023-09-19T03:05:41;100736.09;;;24.63;43.94
64967;BME280;51710;38.732;-121.358;2023-09-19T03:08:14;100737.66;;;24.59;43.74
64967;BME280;51710;38.732;-121.358;2023-09-19T03:10:44;100743.53;;;24.50;43.88
64967;BME280;51710;38.732;-121.358;2023-09-19T03:13:12;100749.50;;;24.47;43.86
64967;BME280;51710;38.732;-121.358;2023-09-19T03:15:41;100749.97;;;24.44;44.10
64967;BME280;51710;38.732;-121.358;2023-09-19T03:18:11;100747.41;;;24.38;43.62
64967;BME280;51710;38.732;-121.358;2023-09-19T03:20:38;100751.94;;;24.32;43.58
64967;BME280;51710;38.732;-121.358;2023-09-19T03:23:04;100744.53;;;24.28;43.59
64967;BME280;51710;38.732;-121.358;2023-09-19T03:25:34;100749.13;;;24.27;44.03
64967;BME280;51710;38.732;-121.358;2023-09-19T03:28:02;100755.09;;;24.24;43.68
64967;BME280;51710;38.732;-121.358;2023-09-19T03:30:31;100756.38;;;24.22;43.52
64967;BME280;51710;38.732;-121.358;2023-09-19T03:32:59;100763.66;;;24.16;43.87
64967;BME280;51710;38.732;-121.358;2023-09-19T03:35:26;100768.19;;;24.11;43.77
64967;BME280;51710;38.732;-121.358;2023-09-19T03:37:52;100775.19;;;24.07;43.87
64967;BME280;51710;38.732;-121.358;2023-09-19T03:40:18;100774.00;;;24.03;43.71
64967;BME280;51710;38.732;-121.358;2023-09-19T03:42:47;100787.47;;;23.98;43.93
64967;BME280;51710;38.732;-121.358;2023-09-19T03:45:13;100780.06;;;23.93;44.06
64967;BME280;51710;38.732;-121.358;2023-09-19T03:47:40;100782.09;;;23.86;43.89
64967;BME280;51710;38.732;-121.358;2023-09-19T03:50:07;100785.53;;;23.82;44.82
64967;BME280;51710;38.732;-121.358;2023-09-19T03:52:34;100781.06;;;23.76;44.38
64967;BME280;51710;38.732;-121.358;2023-09-19T03:55:00;100783.69;;;23.71;44.30
64967;BME280;51710;38.732;-121.358;2023-09-19T03:57:28;100783.09;;;23.69;44.59
64967;BME280;51710;38.732;-121.358;2023-09-19T03:59:54;100788.78;;;23.67;44.77
64967;BME280;51710;38.732;-121.358;2023-09-19T04:02:21;100784.88;;;23.63;44.84
64967;BME280;51710;38.732;-121.358;2023-09-19T04:04:51;100788.34;;;23.59;44.63
64967;BME280;51710;38.732;-121.358;2023-09-19T04:07:18;100785.53;;;23.54;44.74
64967;BME280;51710;38.732;-121.358;2023-09-19T04:09:48;100796.84;;;23.51;44.79
64967;BME280;51710;38.732;-121.358;2023-09-19T04:12:15;100791.06;;;23.47;45.05
64967;BME280;51710;38.732;-121.358;2023-09-19T04:14:44;100799.97;;;23.42;45.19
64967;BME280;51710;38.732;-121.358;2023-09-19T04:17:10;100797.94;;;23.38;45.21
64967;BME280;51710;38.732;-121.358;2023-09-19T04:19:37;100793.81;;;23.35;45.42
64967;BME280;51710;38.732;-121.358;2023-09-19T04:22:06;100789.69;;;23.33;45.10
64967;BME280;51710;38.732;-121.358;2023-09-19T04:24:33;100795.00;;;23.28;45.25
64967;BME280;51710;38.732;-121.358;2023-09-19T04:26:59;100794.28;;;23.21;45.34
64967;BME280;51710;38.732;-121.358;2023-09-19T04:29:25;100803.97;;;23.17;45.21
64967;BME280;51710;38.732;-121.358;2023-09-19T04:31:55;100806.56;;;23.12;45.45
64967;BME280;51710;38.732;-121.358;2023-09-19T04:34:23;100814.34;;;23.08;45.70
64967;BME280;51710;38.732;-121.358;2023-09-19T04:36:50;100815.44;;;23.07;45.73
64967;BME280;51710;38.732;-121.358;2023-09-19T04:39:16;100810.25;;;23.06;45.86
64967;BME280;51710;38.732;-121.358;2023-09-19T04:41:43;100821.00;;;23.01;45.92
64967;BME280;51710;38.732;-121.358;2023-09-19T04:44:11;100820.63;;;22.97;46.23
64967;BME280;51710;38.732;-121.358;2023-09-19T04:46:39;100818.16;;;22.96;46.16
64967;BME280;51710;38.732;-121.358;2023-09-19T04:49:05;100819.22;;;22.95;46.21
64967;BME280;51710;38.732;-121.358;2023-09-19T04:51:31;100821.31;;;22.93;46.25
64967;BME280;51710;38.732;-121.358;2023-09-19T04:54:00;100812.63;;;22.91;46.54
64967;BME280;51710;38.732;-121.358;2023-09-19T04:56:27;100820.53;;;22.92;46.14
64967;BME280;51710;38.732;-121.358;2023-09-19T04:58:54;100819.94;;;22.90;46.20
64967;BME280;51710;38.732;-121.358;2023-09-19T05:01:20;100825.34;;;22.90;46.28
64967;BME280;51710;38.732;-121.358;2023-09-19T05:03:49;100824.41;;;22.85;46.14
64967;BME280;51710;38.732;-121.358;2023-09-19T05:06:21;100819.09;;;22.78;46.13
64967;BME280;51710;38.732;-121.358;2023-09-19T05:08:48;100815.91;;;22.70;46.37
64967;BME280;51710;38.732;-121.358;2023-09-19T05:11:21;100808.53;;;22.59;46.54
64967;BME280;51710;38.732;-121.358;2023-09-19T05:13:49;100823.63;;;22.55;46.60
64967;BME280;51710;38.732;-121.358;2023-09-19T05:16:16;100831.16;;;22.53;46.73
64967;BME280;51710;38.732;-121.358;2023-09-19T05:18:43;100845.78;;;22.52;46.67
64967;BME280;51710;38.732;-121.358;2023-09-19T05:21:09;100844.34;;;22.49;46.82
64967;BME280;51710;38.732;-121.358;2023-09-19T05:23:36;100848.38;;;22.47;47.00
64967;BME280;51710;38.732;-121.358;2023-09-19T05:26:02;100846.13;;;22.44;47.11
64967;BME280;51710;38.732;-121.358;2023-09-19T05:28:29;100855.56;;;22.41;47.36
64967;BME280;51710;38.732;-121.358;2023-09-19T05:30:55;100861.09;;;22.34;47.28
64967;BME280;51710;38.732;-121.358;2023-09-19T05:33:22;100862.84;;;22.29;47.47
64967;BME280;51710;38.732;-121.358;2023-09-19T05:35:48;100865.88;;;22.21;47.44
64967;BME280;51710;38.732;-121.358;2023-09-19T05:38:14;100864.19;;;22.20;47.70
64967;BME280;51710;38.732;-121.358;2023-09-19T05:40:45;100869.25;;;22.16;47.67
64967;BME280;51710;38.732;-121.358;2023-09-19T05:43:11;100860.38;;;22.09;47.87
64967;BME280;51710;38.732;-121.358;2023-09-19T05:45:40;100869.59;;;22.08;47.93
64967;BME280;51710;38.732;-121.358;2023-09-19T05:48:11;100866.50;;;22.05;48.12
64967;BME280;51710;38.732;-121.358;2023-09-19T05:50:39;100869.06;;;22.00;48.11
64967;BME280;51710;38.732;-121.358;2023-09-19T05:53:05;100861.22;;;21.92;48.29
64967;BME280;51710;38.732;-121.358;2023-09-19T05:55:32;100873.44;;;21.83;48.39
64967;BME280;51710;38.732;-121.358;2023-09-19T05:57:59;100879.38;;;21.73;48.83
64967;BME280;51710;38.732;-121.358;2023-09-19T06:00:25;100874.84;;;21.67;48.76
64967;BME280;51710;38.732;-121.358;2023-09-19T06:02:54;100870.56;;;21.60;49.21
64967;BME280;51710;38.732;-121.358;2023-09-19T06:05:21;100868.97;;;21.52;48.99
64967;BME280;51710;38.732;-121.358;2023-09-19T06:07:48;100865.03;;;21.48;49.17
64967;BME280;51710;38.732;-121.358;2023-09-19T06:10:14;100872.59;;;21.46;49.40
64967;BME280;51710;38.732;-121.358;2023-09-19T06:12:43;100875.72;;;21.43;49.53
64967;BME280;51710;38.732;-121.358;2023-09-19T06:15:11;100875.13;;;21.41;49.54
64967;BME280;51710;38.732;-121.358;2023-09-19T06:17:58;100871.84;;;21.39;49.54
64967;BME280;51710;38.732;-121.358;2023-09-19T06:20:28;100872.25;;;21.36;49.58
64967;BME280;51710;38.732;-121.358;2023-09-19T06:22:55;100871.88;;;21.33;49.57
64967;BME280;51710;38.732;-121.358;2023-09-19T06:25:21;100871.50;;;21.29;49.97
64967;BME280;51710;38.732;-121.358;2023-09-19T06:27:49;100874.66;;;21.26;49.95
64967;BME280;51710;38.732;-121.358;2023-09-19T06:30:18;100875.13;;;21.23;50.07
64967;BME280;51710;38.732;-121.358;2023-09-19T06:32:44;100874.50;;;21.21;50.29
64967;BME280;51710;38.732;-121.358;2023-09-19T06:35:12;100879.31;;;21.19;50.37
64967;BME280;51710;38.732;-121.358;2023-09-19T06:37:39;100876.00;;;21.17;50.46
64967;BME280;51710;38.732;-121.358;2023-09-19T06:40:10;100885.19;;;21.16;50.55
64967;BME280;51710;38.732;-121.358;2023-09-19T06:42:43;100884.78;;;21.12;50.61
64967;BME280;51710;38.732;-121.358;2023-09-19T06:45:12;100883.78;;;21.07;50.82
64967;BME280;51710;38.732;-121.358;2023-09-19T06:47:46;100891.75;;;21.02;51.07
64967;BME280;51710;38.732;-121.358;2023-09-19T06:50:21;100888.84;;;20.97;50.83
64967;BME280;51710;38.732;-121.358;2023-09-19T06:52:54;100890.94;;;20.95;51.17
64967;BME280;51710;38.732;-121.358;2023-09-19T06:55:23;100897.41;;;20.94;51.16
64967;BME280;51710;38.732;-121.358;2023-09-19T06:57:54;100888.88;;;20.90;51.24
64967;BME280;51710;38.732;-121.358;2023-09-19T07:00:20;100897.22;;;20.89;51.42
64967;BME280;51710;38.732;-121.358;2023-09-19T07:02:59;100895.59;;;20.88;51.57
64967;BME280;51710;38.732;-121.358;2023-09-19T07:05:34;100891.00;;;20.88;51.58
64967;BME280;51710;38.732;-121.358;2023-09-19T07:08:03;100891.00;;;20.88;51.55
64967;BME280;51710;38.732;-121.358;2023-09-19T07:10:30;100899.34;;;20.87;51.57
64967;BME280;51710;38.732;-121.358;2023-09-19T07:13:01;100903.72;;;20.88;51.91
64967;BME280;51710;38.732;-121.358;2023-09-19T07:15:32;100896.66;;;20.87;51.45
64967;BME280;51710;38.732;-121.358;2023-09-19T07:18:05;100901.00;;;20.88;51.73
64967;BME280;51710;38.732;-121.358;2023-09-19T07:20:32;100897.69;;;20.86;51.77
64967;BME280;51710;38.732;-121.358;2023-09-19T07:23:00;100892.94;;;20.81;52.13
64967;BME280;51710;38.732;-121.358;2023-09-19T07:25:27;100891.94;;;20.76;52.00
64967;BME280;51710;38.732;-121.358;2023-09-19T07:27:57;100894.47;;;20.71;52.46
64967;BME280;51710;38.732;-121.358;2023-09-19T07:30:26;100877.44;;;20.64;52.54
64967;BME280;51710;38.732;-121.358;2023-09-19T07:32:52;100872.44;;;20.61;52.49
64967;BME280;51710;38.732;-121.358;2023-09-19T07:35:19;100869.16;;;20.59;52.79
64967;BME280;51710;38.732;-121.358;2023-09-19T07:37:49;100871.25;;;20.57;52.83
64967;BME280;51710;38.732;-121.358;2023-09-19T07:40:15;100872.28;;;20.56;52.54
64967;BME280;51710;38.732;-121.358;2023-09-19T07:42:42;100855.44;;;20.54;52.79
64967;BME280;51710;38.732;-121.358;2023-09-19T07:45:10;100852.13;;;20.52;52.87
64967;BME280;51710;38.732;-121.358;2023-09-19T07:47:47;100846.72;;;20.52;53.00
64967;BME280;51710;38.732;-121.358;2023-09-19T07:50:14;100845.47;;;20.48;52.98
64967;BME280;51710;38.732;-121.358;2023-09-19T07:52:42;100853.00;;;20.46;53.24
64967;BME280;51710;38.732;-121.358;2023-09-19T07:55:11;100856.34;;;20.41;53.18
64967;BME280;51710;38.732;-121.358;2023-09-19T07:57:42;100870.53;;;20.37;53.20
64967;BME280;51710;38.732;-121.358;2023-09-19T08:00:10;100868.25;;;20.34;53.43
64967;BME280;51710;38.732;-121.358;2023-09-19T08:02:37;100860.97;;;20.34;53.65
64967;BME280;51710;38.732;-121.358;2023-09-19T08:05:10;100862.84;;;20.34;53.81
64967;BME280;51710;38.732;-121.358;2023-09-19T08:07:42;100856.59;;;20.33;54.08
64967;BME280;51710;38.732;-121.358;2023-09-19T08:10:09;100863.50;;;20.29;53.73
64967;BME280;51710;38.732;-121.358;2023-09-19T08:12:40;100866.41;;;20.28;53.65
64967;BME280;51710;38.732;-121.358;2023-09-19T08:15:24;100864.31;;;20.30;53.96
64967;BME280;51710;38.732;-121.358;2023-09-19T08:17:51;100871.41;;;20.31;54.14
64967;BME280;51710;38.732;-121.358;2023-09-19T08:20:17;100876.81;;;20.31;54.28
64967;BME280;51710;38.732;-121.358;2023-09-19T08:22:48;100880.53;;;20.30;54.31
64967;BME280;51710;38.732;-121.358;2023-09-19T08:25:18;100879.34;;;20.26;54.51
64967;BME280;51710;38.732;-121.358;2023-09-19T08:27:48;100888.47;;;20.25;54.59
64967;BME280;51710;38.732;-121.358;2023-09-19T08:30:19;100877.03;;;20.23;54.46
64967;BME280;51710;38.732;-121.358;2023-09-19T08:32:50;100889.78;;;20.22;54.42
64967;BME280;51710;38.732;-121.358;2023-09-19T08:35:16;100884.34;;;20.22;54.69
64967;BME280;51710;38.732;-121.358;2023-09-19T08:37:43;100895.97;;;20.23;54.71
64967;BME280;51710;38.732;-121.358;2023-09-19T08:40:12;100889.53;;;20.24;54.89
64967;BME280;51710;38.732;-121.358;2023-09-19T08:42:52;100889.72;;;20.29;55.01
64967;BME280;51710;38.732;-121.358;2023-09-19T08:45:20;100885.16;;;20.29;54.65
64967;BME280;51710;38.732;-121.358;2023-09-19T08:50:49;100883.28;;;20.23;54.55
64967;BME280;51710;38.732;-121.358;2023-09-19T08:53:26;100880.19;;;20.20;55.04
64967;BME280;51710;38.732;-121.358;2023-09-19T08:55:53;100878.78;;;20.17;55.27
64967;BME280;51710;38.732;-121.358;2023-09-19T08:58:26;100873.34;;;20.17;55.30
64967;BME280;51710;38.732;-121.358;2023-09-19T09:00:56;100877.28;;;20.14;55.43
64967;BME280;51710;38.732;-121.358;2023-09-19T09:03:25;100874.41;;;20.09;55.48
64967;BME280;51710;38.732;-121.358;2023-09-19T09:05:51;100869.44;;;20.06;55.79
64967;BME280;51710;38.732;-121.358;2023-09-19T09:08:19;100876.06;;;20.04;55.86
64967;BME280;51710;38.732;-121.358;2023-09-19T09:10:49;100876.50;;;20.01;55.95
64967;BME280;51710;38.732;-121.358;2023-09-19T09:13:17;100872.97;;;20.00;56.24
64967;BME280;51710;38.732;-121.358;2023-09-19T09:15:43;100874.03;;;19.99;56.11
64967;BME280;51710;38.732;-121.358;2023-09-19T09:18:12;100874.22;;;19.98;56.29
64967;BME280;51710;38.732;-121.358;2023-09-19T09:20:39;100874.66;;;19.95;56.24
64967;BME280;51710;38.732;-121.358;2023-09-19T09:23:05;100875.09;;;19.92;56.38
64967;BME280;51710;38.732;-121.358;2023-09-19T09:25:51;100874.47;;;19.90;56.54
64967;BME280;51710;38.732;-121.358;2023-09-19T09:28:25;100869.28;;;19.88;56.61
64967;BME280;51710;38.732;-121.358;2023-09-19T09:30:57;100875.31;;;19.90;56.69
64967;BME280;51710;38.732;-121.358;2023-09-19T09:33:24;100873.22;;;19.92;56.61
64967;BME280;51710;38.732;-121.358;2023-09-19T09:35:55;100876.34;;;19.89;56.77
64967;BME280;51710;38.732;-121.358;2023-09-19T09:38:46;100869.06;;;19.90;56.73
64967;BME280;51710;38.732;-121.358;2023-09-19T09:41:15;100868.63;;;19.93;56.80
64967;BME280;51710;38.732;-121.358;2023-09-19T09:43:53;100866.56;;;19.88;56.81
64967;BME280;51710;38.732;-121.358;2023-09-19T09:46:21;100872.41;;;19.85;57.03
64967;BME280;51710;38.732;-121.358;2023-09-19T09:49:07;100875.13;;;19.85;57.32
64967;BME280;51710;38.732;-121.358;2023-09-19T09:52:03;100880.53;;;19.85;57.37
64967;BME280;51710;38.732;-121.358;2023-09-19T09:55:02;100883.25;;;19.85;57.16
64967;BME280;51710;38.732;-121.358;2023-09-19T09:57:34;100874.91;;;19.87;57.12
64967;BME280;51710;38.732;-121.358;2023-09-19T10:00:02;100877.00;;;19.85;57.11
64967;BME280;51710;38.732;-121.358;2023-09-19T10:02:37;100869.53;;;19.80;57.25
64967;BME280;51710;38.732;-121.358;2023-09-19T10:05:19;100857.69;;;19.75;57.55
64967;BME280;51710;38.732;-121.358;2023-09-19T10:07:50;100857.47;;;19.76;57.58
64967;BME280;51710;38.732;-121.358;2023-09-19T10:10:35;100863.72;;;19.77;57.60
64967;BME280;51710;38.732;-121.358;2023-09-19T10:13:09;100853.09;;;19.75;57.67
64967;BME280;51710;38.732;-121.358;2023-09-19T10:15:39;100852.91;;;19.70;57.58
64967;BME280;51710;38.732;-121.358;2023-09-19T10:18:14;100844.19;;;19.68;57.67
64967;BME280;51710;38.732;-121.358;2023-09-19T10:20:47;100847.09;;;19.67;57.71
64967;BME280;51710;38.732;-121.358;2023-09-19T10:23:17;100838.19;;;19.66;58.09
64967;BME280;51710;38.732;-121.358;2023-09-19T10:25:48;100838.41;;;19.65;58.00
64967;BME280;51710;38.732;-121.358;2023-09-19T10:28:17;100836.31;;;19.60;58.14
64967;BME280;51710;38.732;-121.358;2023-09-19T10:30:53;100835.69;;;19.58;58.39
64967;BME280;51710;38.732;-121.358;2023-09-19T10:33:21;100831.97;;;19.53;58.49
64967;BME280;51710;38.732;-121.358;2023-09-19T10:35:49;100832.63;;;19.48;58.48
64967;BME280;51710;38.732;-121.358;2023-09-19T10:38:25;100843.25;;;19.43;58.70
64967;BME280;51710;38.732;-121.358;2023-09-19T10:40:56;100846.97;;;19.42;58.77
64967;BME280;51710;38.732;-121.358;2023-09-19T10:43:29;100846.16;;;19.42;59.00
64967;BME280;51710;38.732;-121.358;2023-09-19T10:46:01;100839.91;;;19.41;58.88
64967;BME280;51710;38.732;-121.358;2023-09-19T10:48:31;100838.44;;;19.39;59.01
64967;BME280;51710;38.732;-121.358;2023-09-19T10:51:07;100838.88;;;19.36;58.79
64967;BME280;51710;38.732;-121.358;2023-09-19T10:54:05;100838.47;;;19.32;59.07
64967;BME280;51710;38.732;-121.358;2023-09-19T10:56:35;100845.31;;;19.28;59.26
64967;BME280;51710;38.732;-121.358;2023-09-19T10:59:16;100843.88;;;19.26;59.43
64967;BME280;51710;38.732;-121.358;2023-09-19T11:01:52;100842.41;;;19.23;59.37
64967;BME280;51710;38.732;-121.358;2023-09-19T11:04:33;100842.81;;;19.20;59.52
64967;BME280;51710;38.732;-121.358;2023-09-19T11:07:12;100844.69;;;19.20;59.65
64967;BME280;51710;38.732;-121.358;2023-09-19T11:09:51;100840.13;;;19.20;59.66
64967;BME280;51710;38.732;-121.358;2023-09-19T11:15:07;100833.91;;;19.13;59.90
64967;BME280;51710;38.732;-121.358;2023-09-19T11:17:39;100843.88;;;19.13;59.97
64967;BME280;51710;38.732;-121.358;2023-09-19T11:25:43;100856.78;;;19.11;60.13
64967;BME280;51710;38.732;-121.358;2023-09-19T11:30:45;100861.34;;;19.10;60.36
64967;BME280;51710;38.732;-121.358;2023-09-19T11:46:33;100865.91;;;19.09;60.47
64967;BME280;51710;38.732;-121.358;2023-09-19T11:49:07;100864.03;;;19.10;60.61
64967;BME280;51710;38.732;-121.358;2023-09-19T11:51:43;100874.22;;;19.08;60.46
64967;BME280;51710;38.732;-121.358;2023-09-19T11:54:14;100866.53;;;19.05;60.74
64967;BME280;51710;38.732;-121.358;2023-09-19T11:56:54;100868.19;;;19.06;60.50
64967;BME280;51710;38.732;-121.358;2023-09-19T11:59:24;100862.16;;;19.04;60.50
64967;BME280;51710;38.732;-121.358;2023-09-19T12:01:56;100861.16;;;18.98;60.89
64967;BME280;51710;38.732;-121.358;2023-09-19T12:04:36;100852.63;;;18.95;60.73
64967;BME280;51710;38.732;-121.358;2023-09-19T12:07:08;100856.56;;;18.92;60.92
64967;BME280;51710;38.732;-121.358;2023-09-19T12:09:42;100851.81;;;18.88;60.87
64967;BME280;51710;38.732;-121.358;2023-09-19T12:12:26;100859.28;;;18.86;61.33
64967;BME280;51710;38.732;-121.358;2023-09-19T12:14:53;100865.69;;;18.85;61.40
64967;BME280;51710;38.732;-121.358;2023-09-19T12:17:20;100861.34;;;18.84;61.79
64967;BME280;51710;38.732;-121.358;2023-09-19T12:19:56;100861.56;;;18.82;61.38
64967;BME280;51710;38.732;-121.358;2023-09-19T12:22:22;100860.09;;;18.80;61.55
64967;BME280;51710;38.732;-121.358;2023-09-19T12:24:50;100865.69;;;18.78;61.67
64967;BME280;51710;38.732;-121.358;2023-09-19T12:27:20;100864.66;;;18.79;61.86
64967;BME280;51710;38.732;-121.358;2023-09-19T12:29:48;100860.94;;;18.80;61.94
64967;BME280;51710;38.732;-121.358;2023-09-19T12:32:15;100863.00;;;18.78;61.63
64967;BME280;51710;38.732;-121.358;2023-09-19T12:34:51;100864.22;;;18.76;61.81
64967;BME280;51710;38.732;-121.358;2023-09-19T12:37:18;100860.94;;;18.74;62.01
64967;BME280;51710;38.732;-121.358;2023-09-19T12:39:51;100857.81;;;18.77;62.11
64967;BME280;51710;38.732;-121.358;2023-09-19T12:42:25;100860.50;;;18.77;62.01
64967;BME280;51710;38.732;-121.358;2023-09-19T12:44:58;100856.13;;;18.76;62.23
64967;BME280;51710;38.732;-121.358;2023-09-19T12:47:28;100852.41;;;18.77;62.07
64967;BME280;51710;38.732;-121.358;2023-09-19T12:50:11;100851.78;;;18.75;62.14
64967;BME280;51710;38.732;-121.358;2023-09-19T12:52:50;100850.53;;;18.71;62.07
64967;BME280;51710;38.732;-121.358;2023-09-19T12:55:30;100852.22;;;18.65;62.54
64967;BME280;51710;38.732;-121.358;2023-09-19T12:58:11;100853.66;;;18.61;62.42
64967;BME280;51710;38.732;-121.358;2023-09-19T13:00:39;100858.63;;;18.58;62.49
64967;BME280;51710;38.732;-121.358;2023-09-19T13:03:18;100860.06;;;18.54;62.71
64967;BME280;51710;38.732;-121.358;2023-09-19T13:05:58;100854.66;;;18.54;62.86
64967;BME280;51710;38.732;-121.358;2023-09-19T13:08:34;100857.16;;;18.49;62.80
64967;BME280;51710;38.732;-121.358;2023-09-19T13:11:11;100856.72;;;18.45;63.08
64967;BME280;51710;38.732;-121.358;2023-09-19T13:16:29;100867.31;;;18.47;63.09
64967;BME280;51710;38.732;-121.358;2023-09-19T13:18:56;100856.72;;;18.45;63.11
64967;BME280;51710;38.732;-121.358;2023-09-19T13:21:35;100867.09;;;18.42;63.31